»·PEaware :: SWA1351 KDAL-KABQ

SWA1351 :: KDAL-KABQ

FLIGHT INFORMATION

Flight Status: Arrived
Operator:
Southwest Airlines
More flights by this operator :: More flights under this callsign
Pilot: Drew L. (13237)
Aircraft: BOEING 737-800
(B738)
More flights by this aircraft type
Origin: KDAL Dallas Love
United States
Destination: KABQ Albuquerque Intl Sunport
United States
More flights between these airports :: More routes between these airports
Route: SNSET4 HULZE TXO RECKN COLTR3
File this flight plan on PilotEdge
Remarks: RMK / SIMBRIEF
Altitude:
(Current/Filed)
34,000ft
Speed:
(Current/Filed)
467kts
Departed: 21-Mar-19 02:48 AM
Arrived: 21-Mar-19 04:18 AM
Distance/Time
Traveled:
503nm/1:29
Distance/Time
To Go:
Arrived

Flight Plot

Page will automatically refresh every two minutes.

Flight plan parsing failed; only flown route is shown


Map Options




Map Legend


Flown Route
Filed Route
Departure Airport
Arrival Airport
Navaid (VOR, NDB)
Fix

Horizontal Profiles

Position Reports

Time Latitude Longitude Heading Altitude Ground
Speed
21-Mar-19 02:30 32.846504 -96.850869 180 486ft 0kts
21-Mar-19 02:31 32.846504 -96.850869 180 486ft 0kts
21-Mar-19 02:32 32.846504 -96.850869 180 486ft 0kts
21-Mar-19 02:33 32.846504 -96.850869 180 486ft 0kts
21-Mar-19 02:34 32.846504 -96.850869 180 486ft 0kts
21-Mar-19 02:35 32.846504 -96.850869 180 486ft 0kts
21-Mar-19 02:36 32.846504 -96.850869 180 486ft 0kts
21-Mar-19 02:37 32.846504 -96.850869 180 486ft 0kts
21-Mar-19 02:38 32.846504 -96.850869 180 486ft 0kts
21-Mar-19 02:39 32.846504 -96.850869 180 486ft 0kts
21-Mar-19 02:40 32.846504 -96.850869 180 486ft 0kts
21-Mar-19 02:41 32.846820 -96.850867 180 486ft 2kts
21-Mar-19 02:42 32.847142 -96.850865 180 486ft 0kts
21-Mar-19 02:43 32.847093 -96.850895 225 486ft 1kts
21-Mar-19 02:44 32.845648 -96.853385 186 481ft 21kts
21-Mar-19 02:45 32.840617 -96.849259 136 476ft 35kts
21-Mar-19 02:46 32.834883 -96.842797 177 477ft 14kts
21-Mar-19 02:47 32.843897 -96.854844 315 480ft 152kts
21-Mar-19 02:48 32.877112 -96.892960 314 2650ft 166kts
21-Mar-19 02:49 32.909469 -96.937131 291 4782ft 189kts
21-Mar-19 02:50 32.908382 -97.000223 242 7227ft 209kts
21-Mar-19 02:51 32.858623 -97.038222 190 9629ft 234kts
21-Mar-19 02:52 32.792859 -97.039210 182 11974ft 241kts
21-Mar-19 02:53 32.717870 -97.052443 218 12892ft 309kts
21-Mar-19 02:54 32.677489 -97.145972 262 14905ft 337kts
21-Mar-19 02:55 32.668531 -97.256142 286 17888ft 338kts
21-Mar-19 02:56 32.709192 -97.356394 301 20674ft 342kts
21-Mar-19 02:57 32.757054 -97.455875 300 23205ft 352kts
21-Mar-19 02:58 32.805973 -97.557748 300 25472ft 361kts
21-Mar-19 02:59 32.856276 -97.662759 299 27544ft 370kts
21-Mar-19 03:00 32.904246 -97.772877 290 29460ft 380kts
21-Mar-19 03:01 32.941880 -97.891136 290 31433ft 383kts
21-Mar-19 03:02 32.980072 -98.008337 290 33534ft 376kts
21-Mar-19 03:03 33.018299 -98.125978 290 34250ft 389kts
21-Mar-19 03:04 33.057200 -98.245912 291 34252ft 388kts
21-Mar-19 03:05 33.096406 -98.366378 292 34250ft 390kts
21-Mar-19 03:06 33.135734 -98.487618 292 34253ft 392kts
21-Mar-19 03:07 33.174868 -98.608734 292 34252ft 392kts
21-Mar-19 03:08 33.213514 -98.729022 292 34262ft 392kts
21-Mar-19 03:09 33.252343 -98.850468 292 34260ft 392kts
21-Mar-19 03:10 33.291228 -98.972430 292 34259ft 392kts
21-Mar-19 03:11 33.329956 -99.094323 292 34255ft 391kts
21-Mar-19 03:12 33.368401 -99.215702 292 34261ft 392kts
21-Mar-19 03:13 33.406910 -99.337745 292 34269ft 391kts
21-Mar-19 03:14 33.445251 -99.459697 291 34269ft 391kts
21-Mar-19 03:15 33.481908 -99.582134 290 34257ft 391kts
21-Mar-19 03:16 33.516333 -99.706246 289 34262ft 393kts
21-Mar-19 03:17 33.550635 -99.830527 289 34272ft 392kts
21-Mar-19 03:18 33.584507 -99.953541 289 34275ft 392kts
21-Mar-19 03:19 33.618531 -100.077517 289 34271ft 391kts
21-Mar-19 03:20 33.652431 -100.201473 289 34272ft 392kts
21-Mar-19 03:21 33.691011 -100.322662 293 34265ft 391kts
21-Mar-19 03:22 33.731692 -100.444799 292 34265ft 392kts
21-Mar-19 03:23 33.772008 -100.566375 292 34264ft 392kts
21-Mar-19 03:24 33.812162 -100.688031 292 34273ft 391kts
21-Mar-19 03:25 33.852162 -100.810038 292 34272ft 392kts
21-Mar-19 03:26 33.891992 -100.931908 291 34278ft 395kts
21-Mar-19 03:27 33.932186 -101.055340 290 34290ft 398kts
21-Mar-19 03:28 33.972477 -101.179527 291 34289ft 398kts
21-Mar-19 03:29 34.012688 -101.303980 291 34290ft 398kts
21-Mar-19 03:30 34.052758 -101.428383 290 34288ft 398kts
21-Mar-19 03:31 34.092593 -101.552539 290 34285ft 398kts
21-Mar-19 03:32 34.132405 -101.677151 290 34298ft 399kts
21-Mar-19 03:33 34.172059 -101.802199 290 34298ft 397kts
21-Mar-19 03:34 34.211371 -101.926567 290 34295ft 399kts
21-Mar-19 03:35 34.250696 -102.051458 290 34290ft 398kts
21-Mar-19 03:36 34.289859 -102.176285 290 34295ft 399kts
21-Mar-19 03:37 34.328922 -102.301415 290 34303ft 398kts
21-Mar-19 03:38 34.367916 -102.426647 290 34311ft 397kts
21-Mar-19 03:39 34.406746 -102.551829 290 34308ft 397kts
21-Mar-19 03:40 34.445239 -102.676435 289 34325ft 398kts
21-Mar-19 03:41 34.483801 -102.802114 289 34325ft 399kts
21-Mar-19 03:42 34.514322 -102.930681 283 34322ft 398kts
21-Mar-19 03:43 34.539963 -103.061863 282 34318ft 403kts
21-Mar-19 03:44 34.565846 -103.194222 281 34318ft 406kts
21-Mar-19 03:45 34.592025 -103.328454 281 34317ft 407kts
21-Mar-19 03:46 34.617988 -103.462203 281 34316ft 408kts
21-Mar-19 03:47 34.643853 -103.596151 281 34304ft 407kts
21-Mar-19 03:48 34.669485 -103.729903 281 34298ft 408kts
21-Mar-19 03:49 34.695037 -103.864236 281 34292ft 407kts
21-Mar-19 03:50 34.720377 -103.998145 281 34291ft 407kts
21-Mar-19 03:51 34.745663 -104.132519 281 34304ft 407kts
21-Mar-19 03:52 34.770839 -104.267079 281 34309ft 407kts
21-Mar-19 03:53 34.795824 -104.401405 281 34308ft 407kts
21-Mar-19 03:55 34.820650 -104.535679 281 34306ft 407kts
21-Mar-19 03:56 34.842102 -104.670825 275 34316ft 406kts
21-Mar-19 03:57 34.854192 -104.808666 275 34260ft 409kts
21-Mar-19 03:58 34.866612 -104.947728 273 32668ft 415kts
21-Mar-19 03:59 34.879183 -105.088844 272 31087ft 425kts
21-Mar-19 04:00 34.891971 -105.233640 271 29499ft 432kts
21-Mar-19 04:01 34.904648 -105.378322 271 27520ft 425kts
21-Mar-19 04:02 34.916891 -105.520450 271 25518ft 417kts
21-Mar-19 04:03 34.928331 -105.659505 271 23527ft 409kts
21-Mar-19 04:04 34.939379 -105.796044 271 21547ft 401kts
21-Mar-19 04:05 34.950092 -105.930227 271 19561ft 393kts
21-Mar-19 04:06 34.958261 -106.061593 267 17579ft 384kts
21-Mar-19 04:07 34.959037 -106.190448 267 16225ft 378kts
21-Mar-19 04:08 34.960022 -106.316722 267 14472ft 362kts
21-Mar-19 04:09 34.959103 -106.436697 265 12680ft 345kts
21-Mar-19 04:10 34.948298 -106.550268 239 10896ft 327kts
21-Mar-19 04:11 34.889847 -106.626648 219 9998ft 286kts
21-Mar-19 04:12 34.842548 -106.691136 255 10056ft 243kts
21-Mar-19 04:13 34.877340 -106.758612 327 9896ft 261kts
21-Mar-19 04:14 34.934924 -106.745500 58 8852ft 206kts
21-Mar-19 04:15 34.968305 -106.695599 48 7216ft 179kts
21-Mar-19 04:16 35.002093 -106.654992 50 5929ft 157kts
21-Mar-19 04:16 35.027789 -106.623983 48 5321ft 135kts
21-Mar-19 04:17 35.039737 -106.610896 5 5322ft 34kts
21-Mar-19 04:19 35.045840 -106.613933 286 5322ft 18kts
21-Mar-19 04:19 35.046933 -106.614486 341 5322ft 0kts

Navigation Log

Ident Type
Flight plan parsing failed, navigation log unavailable